X  Sluiten METAR luchtvaart weer gegevens      EHRD Rotterdam The Hague Airport
Temperatuur
11°C Temperatuur
10°C Dauwpunt
94% Vochtigheid



Wind
10 KM/U
6 MPH
3 M/S
5 KTS



270°
West
Huidig weer

Helder Helder
Luchtdruk 1025.92 (hPa) - 30.3 (inHg)
Zicht 6.2 (mijl) - 10 (km)
Vliegveld
Vliegveld code EHRD

Locatie : Rotterdam The Hague Airport
Afstand: 19 (km)

Metar:
EHRD 060025Z AUTO 27005KT 9999 NCD 11/10 Q1026 NOSIG

Tijd: 06-07-2022 02:25 CEST